Time;durP1;ratioP1;P1;durP2;ratioP2;P2;SDS_P1;SDS_P2;PMS_P1;PMS_P2;Temp;Humidity;BMP_temperature;BMP_pressure;BME280_temperature;BME280_humidity;BME280_pressure;Samples;Min_cycle;Max_cycle;Signal;HPM_P1;HPM_P2
2021/05/31 00:01:14;;;;;;;28.05;13.35;;;14.10;99.90;;;;;;5007708;28;20030;-73
2021/05/31 00:03:39;;;;;;;22.98;13.95;;;14.10;99.90;;;;;;5009676;28;20022;-73
2021/05/31 00:06:05;;;;;;;21.02;13.18;;;14.00;99.90;;;;;;4994981;28;20564;-74
2021/05/31 00:08:31;;;;;;;21.20;13.70;;;14.00;99.90;;;;;;4992679;28;20088;-75
2021/05/31 00:10:57;;;;;;;19.80;13.43;;;13.90;99.90;;;;;;4995099;28;20029;-73
2021/05/31 00:13:23;;;;;;;20.27;13.45;;;13.90;99.90;;;;;;4993223;28;20034;-74
2021/05/31 00:15:48;;;;;;;20.73;13.38;;;13.80;99.90;;;;;;4996491;28;20479;-74
2021/05/31 00:18:15;;;;;;;18.92;13.20;;;13.90;99.90;;;;;;4998003;28;20029;-74
2021/05/31 00:20:41;;;;;;;24.88;12.95;;;13.90;99.90;;;;;;4996007;28;20041;-75
2021/05/31 00:23:07;;;;;;;23.25;13.13;;;13.90;99.90;;;;;;4998077;28;20030;-74
2021/05/31 00:25:33;;;;;;;21.92;13.15;;;13.80;99.90;;;;;;5003381;28;20593;-73
2021/05/31 00:27:58;;;;;;;22.00;12.60;;;13.70;99.90;;;;;;4999091;28;20058;-74
2021/05/31 00:30:24;;;;;;;21.90;12.57;;;13.70;99.90;;;;;;4996890;28;20041;-72
2021/05/31 00:32:51;;;;;;;18.30;12.15;;;13.70;99.90;;;;;;4992548;28;20034;-74
2021/05/31 00:35:17;;;;;;;18.45;12.70;;;13.60;99.90;;;;;;4998038;28;20065;-72
2021/05/31 00:37:43;;;;;;;21.35;12.95;;;13.70;99.90;;;;;;4988004;28;20058;-74
2021/05/31 00:40:10;;;;;;;22.13;12.82;;;13.70;99.90;;;;;;4997047;28;20029;-72
2021/05/31 00:42:37;;;;;;;18.90;11.90;;;13.60;99.90;;;;;;4992305;28;20272;-74
2021/05/31 00:45:04;;;;;;;25.20;13.15;;;13.60;99.90;;;;;;4997220;28;20476;-72
2021/05/31 00:47:30;;;;;;;23.25;12.63;;;13.50;99.90;;;;;;4993970;28;20640;-73
2021/05/31 00:49:57;;;;;;;21.60;13.77;;;13.60;99.90;;;;;;5001987;28;20030;-73
2021/05/31 00:52:23;;;;;;;18.40;11.88;;;13.40;99.90;;;;;;4998742;28;20139;-74
2021/05/31 00:54:49;;;;;;;20.50;11.80;;;13.40;99.90;;;;;;4991802;28;20438;-75
2021/05/31 00:57:15;;;;;;;18.35;12.23;;;13.40;99.90;;;;;;5003032;28;20022;-73
2021/05/31 00:59:41;;;;;;;22.33;13.50;;;13.30;99.90;;;;;;5004123;28;20140;-72
2021/05/31 01:02:08;;;;;;;26.60;12.00;;;13.20;99.90;;;;;;4994516;28;20662;-72
2021/05/31 01:04:33;;;;;;;24.60;13.43;;;13.30;99.90;;;;;;5007330;28;20022;-73
2021/05/31 01:07:07;;;;;;;21.85;12.90;;;13.30;99.90;;;;;;5000748;28;20102;-73
2021/05/31 01:09:55;;;;;;;18.00;11.95;;;13.30;99.90;;;;;;5001892;28;20026;-73
2021/05/31 01:12:29;;;;;;;18.30;12.45;;;13.20;99.90;;;;;;4996332;28;20555;-73
2021/05/31 01:15:12;;;;;;;17.40;11.90;;;13.10;99.90;;;;;;4997521;28;20804;-73
2021/05/31 01:17:57;;;;;;;20.52;12.02;;;13.10;99.90;;;;;;4997342;28;20299;-73
2021/05/31 01:20:39;;;;;;;22.02;13.85;;;13.10;99.90;;;;;;4998306;28;20022;-73
2021/05/31 01:23:09;;;;;;;22.67;12.52;;;13.10;99.90;;;;;;4998880;28;20025;-73
2021/05/31 01:25:57;;;;;;;18.50;11.98;;;13.10;99.90;;;;;;4999136;28;20399;-72
2021/05/31 01:28:49;;;;;;;23.10;13.07;;;13.10;99.90;;;;;;4999198;28;20026;-73
2021/05/31 01:31:38;;;;;;;16.77;11.70;;;13.10;99.90;;;;;;4996372;28;20074;-72
2021/05/31 01:34:10;;;;;;;18.45;12.15;;;13.10;99.90;;;;;;5000023;28;20048;-74
2021/05/31 01:36:42;;;;;;;18.10;11.47;;;13.00;99.90;;;;;;5010154;28;20030;-73
2021/05/31 01:39:10;;;;;;;19.80;11.63;;;13.00;99.90;;;;;;5007900;28;20013;-74
2021/05/31 01:41:36;;;;;;;17.20;11.60;;;13.00;99.90;;;;;;5001023;28;20018;-75
2021/05/31 01:44:03;;;;;;;21.52;12.35;;;12.90;99.90;;;;;;5002059;28;20030;-72
2021/05/31 01:46:29;;;;;;;22.65;12.00;;;12.90;99.90;;;;;;5004943;28;20041;-72
2021/05/31 01:48:56;;;;;;;19.95;12.73;;;12.90;99.90;;;;;;5003268;28;20025;-73
2021/05/31 01:51:22;;;;;;;18.73;13.13;;;12.80;99.90;;;;;;5021270;28;20117;-72
2021/05/31 01:53:49;;;;;;;20.20;12.07;;;12.70;99.90;;;;;;5015713;28;20488;-72
2021/05/31 01:56:16;;;;;;;22.35;12.93;;;12.80;99.90;;;;;;5015543;28;20041;-74
2021/05/31 01:58:42;;;;;;;25.08;12.07;;;12.70;99.90;;;;;;5012447;28;20045;-73
2021/05/31 02:01:09;;;;;;;22.92;13.43;;;12.50;99.90;;;;;;5021369;28;20014;-72
2021/05/31 02:03:36;;;;;;;24.98;13.52;;;12.50;99.90;;;;;;5022010;28;20018;-73
2021/05/31 02:06:02;;;;;;;15.70;11.82;;;12.50;99.90;;;;;;5008731;28;20068;-77
2021/05/31 02:08:35;;;;;;;19.48;13.25;;;12.50;99.90;;;;;;5008030;28;20491;-74
2021/05/31 02:11:20;;;;;;;26.33;13.70;;;12.60;99.90;;;;;;5025358;28;20010;-73
2021/05/31 02:13:48;;;;;;;19.52;13.55;;;12.60;99.90;;;;;;5042433;28;20072;-72
2021/05/31 02:16:25;;;;;;;19.10;13.25;;;12.60;99.90;;;;;;5029557;28;20053;-73
2021/05/31 02:18:52;;;;;;;18.55;13.45;;;12.60;99.90;;;;;;5006630;28;20111;-74
2021/05/31 02:21:21;;;;;;;22.20;14.27;;;12.60;99.90;;;;;;5003583;28;20131;-72
2021/05/31 02:23:48;;;;;;;18.95;12.52;;;12.50;99.90;;;;;;5006894;28;20032;-75
2021/05/31 02:26:17;;;;;;;26.38;14.45;;;12.50;99.90;;;;;;4993007;28;20093;-72
2021/05/31 02:28:45;;;;;;;26.10;14.23;;;12.40;99.90;;;;;;4997863;28;20383;-74
2021/05/31 02:31:10;;;;;;;19.40;14.10;;;12.30;99.90;;;;;;5003898;28;20069;-73
2021/05/31 02:33:36;;;;;;;27.52;13.95;;;12.30;99.90;;;;;;5009259;28;20042;-73
2021/05/31 02:36:03;;;;;;;25.35;14.00;;;12.40;99.90;;;;;;5000988;28;20032;-73
2021/05/31 02:38:29;;;;;;;25.00;14.80;;;12.40;99.90;;;;;;4995699;28;20030;-72
2021/05/31 02:40:55;;;;;;;20.75;12.55;;;12.40;99.90;;;;;;4995936;28;20030;-74
2021/05/31 02:43:21;;;;;;;21.15;12.70;;;12.30;99.90;;;;;;4997794;28;20440;-72
2021/05/31 02:45:46;;;;;;;22.60;13.45;;;12.30;99.90;;;;;;5002794;28;20018;-72
2021/05/31 02:48:12;;;;;;;20.27;14.70;;;12.20;99.90;;;;;;4991043;28;20042;-73
2021/05/31 02:50:37;;;;;;;24.27;14.48;;;12.20;99.90;;;;;;5009101;28;20067;-73
2021/05/31 02:53:04;;;;;;;23.77;14.55;;;12.10;99.90;;;;;;5002359;28;20192;-74
2021/05/31 02:55:32;;;;;;;25.00;14.70;;;12.20;99.90;;;;;;4994011;28;20144;-74
2021/05/31 02:57:59;;;;;;;24.70;14.75;;;12.10;99.90;;;;;;5010664;28;20038;-72
2021/05/31 03:00:26;;;;;;;24.30;15.20;;;12.10;99.90;;;;;;5010873;28;20030;-73
2021/05/31 03:02:51;;;;;;;24.88;14.95;;;12.10;99.90;;;;;;5009498;28;20018;-73
2021/05/31 03:05:20;;;;;;;25.02;15.68;;;12.10;99.90;;;;;;5001101;28;20061;-74
2021/05/31 03:07:46;;;;;;;22.02;15.63;;;12.00;99.90;;;;;;5008542;28;20057;-71
2021/05/31 03:10:14;;;;;;;26.38;15.20;;;12.00;99.90;;;;;;5009600;28;20020;-74
2021/05/31 03:12:40;;;;;;;28.80;16.15;;;12.10;99.90;;;;;;5012104;28;20072;-73
2021/05/31 03:15:08;;;;;;;28.25;17.02;;;12.00;99.90;;;;;;5010687;28;20026;-73
2021/05/31 03:17:34;;;;;;;25.75;16.20;;;11.90;99.90;;;;;;5004341;28;20022;-71
2021/05/31 03:20:00;;;;;;;27.38;15.07;;;12.00;99.90;;;;;;5012443;28;20023;-72
2021/05/31 03:22:25;;;;;;;27.33;15.77;;;12.00;99.90;;;;;;5022430;28;20064;-73
2021/05/31 03:24:51;;;;;;;24.83;17.17;;;11.90;99.90;;;;;;5018681;28;20083;-74
2021/05/31 03:27:17;;;;;;;26.80;16.52;;;11.90;99.90;;;;;;5006258;28;20150;-73
2021/05/31 03:29:42;;;;;;;25.73;15.57;;;11.90;99.90;;;;;;5010642;28;20082;-75
2021/05/31 03:32:08;;;;;;;30.70;15.40;;;11.90;99.90;;;;;;5026863;28;20022;-72
2021/05/31 03:34:36;;;;;;;23.00;16.05;;;11.90;99.90;;;;;;5020176;28;20033;-74
2021/05/31 03:37:02;;;;;;;21.92;14.88;;;11.90;99.90;;;;;;5000108;28;20083;-74
2021/05/31 03:39:28;;;;;;;30.17;16.60;;;11.90;99.90;;;;;;4997657;28;20026;-73
2021/05/31 03:41:55;;;;;;;29.27;15.82;;;11.80;99.90;;;;;;5004986;28;20038;-72
2021/05/31 03:44:21;;;;;;;23.98;16.02;;;11.80;99.90;;;;;;5018458;28;20030;-73
2021/05/31 03:46:46;;;;;;;27.20;16.98;;;11.80;99.90;;;;;;5015480;28;20042;-72
2021/05/31 03:49:12;;;;;;;26.20;16.15;;;11.90;99.90;;;;;;5016193;28;20029;-72
2021/05/31 03:51:39;;;;;;;28.10;16.17;;;11.90;99.90;;;;;;5019450;28;21121;-72
2021/05/31 03:54:05;;;;;;;26.63;16.80;;;11.90;99.90;;;;;;5021042;28;20048;-72
2021/05/31 03:56:31;;;;;;;25.70;16.67;;;11.80;99.90;;;;;;5016457;28;20034;-73
2021/05/31 03:58:56;;;;;;;30.30;16.35;;;11.90;99.90;;;;;;5022081;28;20010;-73
2021/05/31 04:01:22;;;;;;;25.15;17.00;;;12.00;99.90;;;;;;5023348;28;20014;-73
2021/05/31 04:03:49;;;;;;;28.77;16.23;;;12.00;99.90;;;;;;5019594;28;20118;-71
2021/05/31 04:06:51;;;;;;;31.00;17.50;;;12.00;99.90;;;;;;5022175;28;20023;-73
2021/05/31 04:12:02;;;;;;;30.38;15.98;;;11.90;99.90;;;;;;5018207;28;20037;-72
2021/05/31 04:14:28;;;;;;;28.13;16.55;;;12.00;99.90;;;;;;5026072;28;20038;-72
2021/05/31 04:16:55;;;;;;;25.95;16.35;;;12.00;99.90;;;;;;5025814;28;20456;-72
2021/05/31 04:19:23;;;;;;;26.35;17.38;;;12.10;99.90;;;;;;5008373;28;20743;-74
2021/05/31 04:21:52;;;;;;;29.77;17.85;;;12.30;99.90;;;;;;4999816;28;20066;-74
2021/05/31 04:24:18;;;;;;;28.52;17.10;;;12.30;99.90;;;;;;5001871;28;20044;-73
2021/05/31 04:26:45;;;;;;;31.33;17.02;;;12.30;99.90;;;;;;4992460;28;20029;-74
2021/05/31 04:29:13;;;;;;;27.40;16.73;;;12.30;99.90;;;;;;4996959;28;20034;-73
2021/05/31 04:31:39;;;;;;;32.55;16.38;;;12.30;99.90;;;;;;4996218;28;20022;-73
2021/05/31 04:34:07;;;;;;;26.92;17.88;;;12.30;99.90;;;;;;4997129;28;20030;-72
2021/05/31 04:36:33;;;;;;;30.50;16.42;;;12.40;99.90;;;;;;4994612;28;20023;-73
2021/05/31 04:39:00;;;;;;;28.10;17.27;;;12.20;99.90;;;;;;4996935;28;20082;-73
2021/05/31 04:41:25;;;;;;;30.55;18.33;;;12.20;99.90;;;;;;4992745;28;20062;-75
2021/05/31 04:43:51;;;;;;;29.52;18.20;;;12.20;99.90;;;;;;4998750;28;20034;-74
2021/05/31 04:46:17;;;;;;;29.40;17.98;;;12.30;99.90;;;;;;5008268;28;20579;-75
2021/05/31 04:48:43;;;;;;;31.80;17.00;;;12.30;99.90;;;;;;5016808;28;20037;-77
2021/05/31 04:51:08;;;;;;;29.38;17.13;;;12.30;99.90;;;;;;5019685;28;20022;-74
2021/05/31 04:53:34;;;;;;;24.83;16.15;;;12.30;99.90;;;;;;5029485;28;20034;-76
2021/05/31 04:56:11;;;;;;;27.65;17.48;;;12.30;99.90;;;;;;5037300;28;20046;-75
2021/05/31 04:58:50;;;;;;;30.65;15.93;;;12.30;99.90;;;;;;5028754;28;20026;-75
2021/05/31 05:01:30;;;;;;;27.33;17.30;;;12.40;99.90;;;;;;5033095;28;20070;-74
2021/05/31 05:03:58;;;;;;;26.02;17.40;;;12.40;99.90;;;;;;5019446;28;20464;-74
2021/05/31 05:06:54;;;;;;;27.45;16.70;;;12.50;99.90;;;;;;5035875;28;20515;-74
2021/05/31 05:09:28;;;;;;;33.70;17.45;;;12.60;99.90;;;;;;5027790;28;20029;-75
2021/05/31 05:11:53;;;;;;;26.02;17.08;;;12.80;99.90;;;;;;5021271;28;20046;-73
2021/05/31 05:14:23;;;;;;;29.20;17.65;;;12.80;99.90;;;;;;5019877;28;20101;-73
2021/05/31 05:16:49;;;;;;;26.40;16.38;;;12.80;99.90;;;;;;5009140;28;20034;-74
2021/05/31 05:19:14;;;;;;;30.38;17.25;;;12.90;99.90;;;;;;5005305;28;20018;-73
2021/05/31 05:21:41;;;;;;;25.13;16.13;;;13.00;99.90;;;;;;5019632;28;20017;-74
2021/05/31 05:24:07;;;;;;;29.17;16.98;;;13.10;99.90;;;;;;5021624;28;20034;-74
2021/05/31 05:26:34;;;;;;;31.55;18.17;;;13.20;99.90;;;;;;5020334;28;20022;-73
2021/05/31 05:29:00;;;;;;;30.98;16.55;;;13.30;99.90;;;;;;5010698;28;20070;-73
2021/05/31 05:31:26;;;;;;;24.80;17.20;;;13.30;99.90;;;;;;5012659;28;20036;-73
2021/05/31 05:33:52;;;;;;;28.98;17.17;;;13.40;99.90;;;;;;5005402;28;20025;-73
2021/05/31 05:36:37;;;;;;;27.20;15.82;;;13.40;99.90;;;;;;5005360;28;20076;-75
2021/05/31 05:41:57;;;;;;;29.83;16.75;;;13.60;99.90;;;;;;5004345;28;20037;-75
2021/05/31 05:49:41;;;;;;;30.50;17.23;;;13.80;99.90;;;;;;5032267;28;20036;-74
2021/05/31 05:52:09;;;;;;;32.55;16.48;;;13.80;99.90;;;;;;5035846;28;20022;-74
2021/05/31 05:54:35;;;;;;;28.33;16.52;;;13.90;99.90;;;;;;5028869;28;20025;-74
2021/05/31 05:57:01;;;;;;;26.67;15.65;;;14.10;99.90;;;;;;5033049;28;20045;-74
2021/05/31 05:59:27;;;;;;;30.98;17.05;;;14.10;99.90;;;;;;5027624;28;20014;-74
2021/05/31 06:01:52;;;;;;;36.97;16.67;;;14.20;99.90;;;;;;5036090;28;20025;-75
2021/05/31 06:04:19;;;;;;;33.25;17.10;;;14.20;99.90;;;;;;5016439;28;20018;-74
2021/05/31 06:06:46;;;;;;;31.88;17.02;;;14.20;99.90;;;;;;5021572;28;20018;-74
2021/05/31 06:09:12;;;;;;;28.45;15.52;;;14.30;99.90;;;;;;5014191;28;20054;-74
2021/05/31 06:11:41;;;;;;;28.15;14.82;;;14.50;99.90;;;;;;5012086;28;20010;-75
2021/05/31 06:14:07;;;;;;;27.25;16.95;;;14.60;99.90;;;;;;5013493;28;20037;-75
2021/05/31 06:16:33;;;;;;;31.73;17.13;;;14.70;99.90;;;;;;5001428;28;20029;-75
2021/05/31 06:18:58;;;;;;;31.45;16.45;;;14.80;99.90;;;;;;5014156;28;20044;-76
2021/05/31 06:21:24;;;;;;;27.98;16.55;;;15.10;99.90;;;;;;4998335;28;20395;-74
2021/05/31 06:23:50;;;;;;;28.58;16.65;;;15.40;99.90;;;;;;5012014;28;20093;-75
2021/05/31 06:26:15;;;;;;;28.65;16.35;;;15.40;99.90;;;;;;5018443;28;20022;-75
2021/05/31 06:28:42;;;;;;;23.48;15.57;;;15.80;99.90;;;;;;5001559;28;20022;-76
2021/05/31 06:31:07;;;;;;;24.67;16.45;;;15.90;99.90;;;;;;5007733;28;20133;-75
2021/05/31 06:33:33;;;;;;;27.77;16.35;;;16.10;99.90;;;;;;5006063;28;20121;-74
2021/05/31 06:36:04;;;;;;;21.75;15.50;;;16.20;99.90;;;;;;5003341;28;20030;-77
2021/05/31 06:38:33;;;;;;;21.77;14.55;;;16.30;99.90;;;;;;4999953;28;20015;-75
2021/05/31 06:40:59;;;;;;;25.60;14.32;;;16.30;99.90;;;;;;4993729;28;20019;-74
2021/05/31 06:43:24;;;;;;;28.45;15.80;;;16.40;99.90;;;;;;4997086;28;20018;-74
2021/05/31 06:45:50;;;;;;;32.72;17.05;;;16.50;99.90;;;;;;4999516;28;20038;-75
2021/05/31 06:48:15;;;;;;;32.17;16.45;;;16.50;99.90;;;;;;5010061;28;20029;-75
2021/05/31 06:50:44;;;;;;;28.92;15.90;;;16.70;99.90;;;;;;5017815;28;20650;-74
2021/05/31 06:53:10;;;;;;;21.40;14.57;;;17.00;99.90;;;;;;5006207;28;20035;-74
2021/05/31 06:55:35;;;;;;;24.67;15.20;;;17.00;99.90;;;;;;5006705;28;20026;-75
2021/05/31 06:58:02;;;;;;;31.30;15.52;;;16.90;99.90;;;;;;5005931;28;20018;-75
2021/05/31 07:00:28;;;;;;;25.10;14.45;;;17.10;99.90;;;;;;5004279;28;20026;-76
2021/05/31 07:02:55;;;;;;;25.70;15.10;;;17.20;99.90;;;;;;5008489;28;20018;-74
2021/05/31 07:05:21;;;;;;;25.45;12.90;;;17.10;99.90;;;;;;4996111;28;20026;-75
2021/05/31 07:07:47;;;;;;;20.05;12.60;;;17.40;99.90;;;;;;5005628;28;20105;-76
2021/05/31 07:10:16;;;;;;;24.60;13.40;;;17.70;99.90;;;;;;5007587;28;20062;-75
2021/05/31 07:12:42;;;;;;;22.35;12.30;;;17.80;99.90;;;;;;5010041;28;20410;-75
2021/05/31 07:15:11;;;;;;;24.80;13.35;;;17.60;99.90;;;;;;5002981;28;20056;-76
2021/05/31 07:17:37;;;;;;;18.80;11.95;;;17.50;99.90;;;;;;5002480;28;20034;-77
2021/05/31 07:20:06;;;;;;;22.73;13.27;;;17.80;99.90;;;;;;5011919;28;20072;-75
2021/05/31 07:22:32;;;;;;;23.98;13.10;;;17.90;99.90;;;;;;5009942;28;20033;-76
2021/05/31 07:24:57;;;;;;;20.80;11.20;;;18.10;99.90;;;;;;5016075;28;20026;-74
2021/05/31 07:27:23;;;;;;;20.83;12.50;;;18.00;99.90;;;;;;5003162;28;20126;-75
2021/05/31 07:29:49;;;;;;;20.42;11.98;;;18.40;99.90;;;;;;5001178;28;20030;-76
2021/05/31 07:32:15;;;;;;;18.88;12.57;;;18.30;99.90;;;;;;4995392;28;20019;-76
2021/05/31 07:34:41;;;;;;;27.50;12.50;;;18.50;99.90;;;;;;5002294;28;20025;-75
2021/05/31 07:37:07;;;;;;;19.77;12.35;;;18.50;99.90;;;;;;4995184;28;20401;-76
2021/05/31 07:39:33;;;;;;;18.83;12.38;;;18.30;99.90;;;;;;4995146;28;20050;-76
2021/05/31 07:41:59;;;;;;;19.45;12.45;;;18.20;99.90;;;;;;5001104;28;20033;-76
2021/05/31 07:44:24;;;;;;;21.23;13.63;;;18.30;99.90;;;;;;5006087;28;20022;-75
2021/05/31 07:46:50;;;;;;;22.35;12.23;;;18.20;99.90;;;;;;5008222;28;20022;-76
2021/05/31 07:49:16;;;;;;;18.88;11.43;;;18.40;99.90;;;;;;5026695;28;20014;-76
2021/05/31 07:51:43;;;;;;;20.63;11.18;;;18.50;99.90;;;;;;5029531;28;20094;-76
2021/05/31 07:54:09;;;;;;;22.48;11.98;;;18.50;99.90;;;;;;5008247;28;20082;-77
2021/05/31 07:56:36;;;;;;;18.33;10.70;;;18.30;99.90;;;;;;5011160;28;20041;-74
2021/05/31 07:59:04;;;;;;;21.00;11.68;;;18.50;99.90;;;;;;5010413;28;20049;-76
2021/05/31 08:01:29;;;;;;;19.08;10.80;;;18.80;99.90;;;;;;5025507;28;20012;-76
2021/05/31 08:03:59;;;;;;;21.30;11.40;;;19.20;99.90;;;;;;5020237;28;20046;-75
2021/05/31 08:06:25;;;;;;;18.90;11.45;;;19.30;99.90;;;;;;5010819;28;20022;-76
2021/05/31 08:08:51;;;;;;;22.08;12.32;;;19.20;99.90;;;;;;5008716;28;20473;-76
2021/05/31 08:11:17;;;;;;;17.08;10.52;;;19.30;99.90;;;;;;5014257;28;20801;-76
2021/05/31 08:13:43;;;;;;;18.00;9.85;;;19.30;99.90;;;;;;5013835;28;20057;-75
2021/05/31 08:16:11;;;;;;;17.40;11.38;;;19.40;99.90;;;;;;5013685;28;20022;-75
2021/05/31 08:18:36;;;;;;;17.92;10.45;;;19.30;99.90;;;;;;5005772;28;20011;-74
2021/05/31 08:21:03;;;;;;;17.52;11.18;;;19.30;99.90;;;;;;5009731;28;20022;-75
2021/05/31 08:23:29;;;;;;;16.23;9.60;;;19.40;99.90;;;;;;5009344;28;20022;-76
2021/05/31 08:25:55;;;;;;;19.80;10.30;;;19.60;99.90;;;;;;5010451;28;20068;-73
2021/05/31 08:28:27;;;;;;;14.85;8.45;;;19.80;99.90;;;;;;5014969;28;20451;-76
2021/05/31 08:30:53;;;;;;;20.75;10.05;;;19.90;99.90;;;;;;5004682;28;20022;-74
2021/05/31 08:33:20;;;;;;;17.20;8.93;;;19.60;99.90;;;;;;4999113;28;20026;-75
2021/05/31 08:35:46;;;;;;;12.90;8.63;;;19.50;99.90;;;;;;5001682;28;20022;-75
2021/05/31 08:38:12;;;;;;;18.35;9.30;;;19.80;99.90;;;;;;5006534;28;20494;-75
2021/05/31 08:40:41;;;;;;;11.27;7.50;;;19.80;99.90;;;;;;4999682;28;20019;-75
2021/05/31 08:43:06;;;;;;;13.27;8.15;;;20.00;99.90;;;;;;4998621;28;20073;-75
2021/05/31 08:45:36;;;;;;;17.40;8.52;;;19.60;99.90;;;;;;4993599;28;20015;-77
2021/05/31 08:48:02;;;;;;;12.23;7.97;;;19.60;99.90;;;;;;4994595;28;20094;-75
2021/05/31 08:50:33;;;;;;;9.68;6.30;;;19.90;99.90;;;;;;5009205;28;20022;-74
2021/05/31 08:53:00;;;;;;;12.38;5.70;;;20.10;99.90;;;;;;4997895;28;20587;-75
2021/05/31 08:55:29;;;;;;;7.15;5.22;;;20.30;99.90;;;;;;5006102;28;20022;-74
2021/05/31 08:57:57;;;;;;;9.48;5.32;;;20.50;99.90;;;;;;5011645;28;20117;-74
2021/05/31 09:00:29;;;;;;;15.98;5.25;;;20.50;99.90;;;;;;5013311;28;20026;-73
2021/05/31 09:02:59;;;;;;;14.25;5.65;;;20.50;99.60;;;;;;5014839;28;20014;-74
2021/05/31 09:05:32;;;;;;;10.48;5.63;;;20.40;99.90;;;;;;5029213;28;20291;-75
2021/05/31 09:08:07;;;;;;;8.70;4.03;;;20.70;99.90;;;;;;5009701;28;20033;-76
2021/05/31 09:10:45;;;;;;;4.40;3.53;;;21.00;98.20;;;;;;5017235;28;20026;-77
2021/05/31 09:13:24;;;;;;;5.95;3.10;;;20.80;94.80;;;;;;5015484;28;20495;-76
2021/05/31 09:16:22;;;;;;;6.45;3.33;;;20.90;93.60;;;;;;4998462;28;20030;-74
2021/05/31 09:18:55;;;;;;;4.38;3.80;;;20.70;94.80;;;;;;5008152;28;20034;-76
2021/05/31 09:21:21;;;;;;;10.90;3.78;;;20.60;96.10;;;;;;5007627;28;20437;-75
2021/05/31 09:23:51;;;;;;;4.75;3.25;;;20.60;94.20;;;;;;5011602;28;20025;-76
2021/05/31 09:26:17;;;;;;;8.20;4.22;;;20.60;94.60;;;;;;4996605;28;20025;-75
2021/05/31 09:28:53;;;;;;;9.57;4.05;;;20.80;95.30;;;;;;4999093;28;20392;-74
2021/05/31 09:31:19;;;;;;;5.93;3.97;;;21.10;93.70;;;;;;5010236;28;20037;-75
2021/05/31 09:34:00;;;;;;;9.90;4.03;;;20.80;92.70;;;;;;5007311;28;20018;-77
2021/05/31 09:36:26;;;;;;;11.65;4.03;;;21.00;94.10;;;;;;4993131;28;20019;-75
2021/05/31 09:38:53;;;;;;;9.60;3.80;;;21.10;93.00;;;;;;5013179;28;20042;-75
2021/05/31 09:41:30;;;;;;;6.28;3.78;;;21.50;92.30;;;;;;5007664;28;20010;-74
2021/05/31 09:44:02;;;;;;;9.05;4.22;;;21.70;92.30;;;;;;5015493;28;20022;-75
2021/05/31 09:46:37;;;;;;;6.30;4.45;;;21.80;92.60;;;;;;5007315;28;20027;-74
2021/05/31 09:49:21;;;;;;;8.27;4.38;;;21.80;92.10;;;;;;5008300;28;20475;-74
2021/05/31 09:51:59;;;;;;;6.30;3.28;;;21.90;91.60;;;;;;5015339;28;20022;-75
2021/05/31 09:54:32;;;;;;;4.72;3.83;;;22.10;88.70;;;;;;5012323;28;20026;-75
2021/05/31 09:57:00;;;;;;;6.90;3.45;;;22.10;89.80;;;;;;5015078;28;20097;-74
2021/05/31 09:59:28;;;;;;;6.75;3.70;;;22.00;86.50;;;;;;5008629;28;20022;-76
2021/05/31 10:02:01;;;;;;;7.85;4.63;;;22.10;90.70;;;;;;5016304;28;20361;-75
2021/05/31 10:04:44;;;;;;;11.18;5.07;;;22.30;89.20;;;;;;5012008;28;20014;-74
2021/05/31 10:07:23;;;;;;;13.05;5.40;;;22.40;88.00;;;;;;4997083;28;20057;-74
2021/05/31 10:09:49;;;;;;;8.32;4.63;;;21.90;88.70;;;;;;4999340;28;20106;-76
2021/05/31 10:12:15;;;;;;;6.07;4.53;;;22.20;91.20;;;;;;5006415;28;20102;-75
2021/05/31 10:14:43;;;;;;;12.48;5.88;;;22.20;88.50;;;;;;5013489;28;20054;-73
2021/05/31 10:17:12;;;;;;;10.18;5.10;;;22.10;90.60;;;;;;5015847;28;20021;-76
2021/05/31 10:19:39;;;;;;;8.70;5.82;;;22.20;90.00;;;;;;5000964;28;20092;-74
2021/05/31 10:22:05;;;;;;;6.47;4.47;;;22.00;90.00;;;;;;5003552;28;20113;-76
2021/05/31 10:24:33;;;;;;;7.95;4.82;;;22.30;90.10;;;;;;5009429;28;20050;-74
2021/05/31 10:27:00;;;;;;;5.82;5.05;;;22.30;89.60;;;;;;5013756;28;20040;-75
2021/05/31 10:29:26;;;;;;;10.52;5.53;;;21.70;89.80;;;;;;5014560;28;20033;-73
2021/05/31 10:31:51;;;;;;;12.80;5.25;;;21.70;90.40;;;;;;5013940;28;20022;-75
2021/05/31 10:34:23;;;;;;;12.20;5.05;;;21.40;90.00;;;;;;5011439;28;20049;-74
2021/05/31 10:36:55;;;;;;;7.82;4.88;;;21.10;90.30;;;;;;4995234;28;20026;-75
2021/05/31 10:39:27;;;;;;;8.73;5.13;;;21.30;88.10;;;;;;4997998;28;20131;-75
2021/05/31 10:42:07;;;;;;;7.10;5.15;;;21.50;88.90;;;;;;5002097;28;20074;-75
2021/05/31 10:44:33;;;;;;;12.68;6.55;;;21.80;89.20;;;;;;5000856;28;20030;-76
2021/05/31 10:47:14;;;;;;;10.38;5.60;;;21.70;89.00;;;;;;4999044;28;20022;-75
2021/05/31 10:49:40;;;;;;;9.63;4.97;;;21.80;88.70;;;;;;5010874;28;20072;-75
2021/05/31 10:52:17;;;;;;;7.32;4.47;;;21.60;88.20;;;;;;5026701;28;20030;-75
2021/05/31 10:54:42;;;;;;;8.02;5.07;;;21.50;89.70;;;;;;5024461;28;20022;-75
2021/05/31 10:57:10;;;;;;;5.88;4.28;;;22.00;88.70;;;;;;5006631;28;20041;-73
2021/05/31 11:00:05;;;;;;;7.07;3.83;;;22.20;87.90;;;;;;5007985;28;20077;-75
2021/05/31 11:02:31;;;;;;;10.73;4.18;;;21.90;83.70;;;;;;5001510;28;20034;-75
2021/05/31 11:05:10;;;;;;;9.55;3.80;;;21.70;83.90;;;;;;5013640;28;20081;-75
2021/05/31 11:07:36;;;;;;;8.02;4.30;;;22.10;83.90;;;;;;5022005;28;20022;-75
2021/05/31 11:10:16;;;;;;;11.30;5.07;;;22.00;82.90;;;;;;5002332;28;20029;-76
2021/05/31 11:12:42;;;;;;;6.97;3.63;;;22.10;82.90;;;;;;5002508;28;20121;-74
2021/05/31 11:15:11;;;;;;;5.40;3.42;;;22.10;81.00;;;;;;5008654;28;20042;-74
2021/05/31 11:17:51;;;;;;;9.75;3.30;;;21.90;81.60;;;;;;5012437;28;20010;-76
2021/05/31 11:20:18;;;;;;;4.70;3.33;;;22.20;80.70;;;;;;5010600;28;20053;-75
2021/05/31 11:22:59;;;;;;;6.00;3.38;;;22.20;79.60;;;;;;5002672;28;20019;-75
2021/05/31 11:25:26;;;;;;;5.75;3.45;;;22.00;78.70;;;;;;5014788;28;20025;-76
2021/05/31 11:28:04;;;;;;;5.38;3.35;;;22.30;79.80;;;;;;5009527;28;20049;-73
2021/05/31 11:30:34;;;;;;;6.22;3.35;;;22.30;77.20;;;;;;5007989;28;20026;-76
2021/05/31 11:33:03;;;;;;;7.30;3.72;;;22.40;79.80;;;;;;5015225;28;20558;-75
2021/05/31 11:35:30;;;;;;;6.03;3.50;;;22.40;78.70;;;;;;5006637;28;20015;-73
2021/05/31 11:37:57;;;;;;;6.00;3.55;;;22.50;78.00;;;;;;5000502;28;20010;-74
2021/05/31 11:40:28;;;;;;;4.82;3.67;;;22.60;76.50;;;;;;5006264;28;20725;-74
2021/05/31 11:42:56;;;;;;;11.07;3.15;;;22.30;76.30;;;;;;5003366;28;20101;-76
2021/05/31 11:45:24;;;;;;;7.00;4.07;;;22.20;76.70;;;;;;5008350;28;20033;-75
2021/05/31 11:47:59;;;;;;;7.07;3.10;;;22.40;77.20;;;;;;5006032;28;20030;-76
2021/05/31 11:50:26;;;;;;;6.97;3.13;;;22.30;78.30;;;;;;5018393;28;20026;-74
2021/05/31 11:52:51;;;;;;;6.45;3.67;;;22.40;75.00;;;;;;5010207;28;20040;-76
2021/05/31 11:55:24;;;;;;;3.75;2.33;;;22.70;76.00;;;;;;5030239;28;20025;-74
2021/05/31 11:57:50;;;;;;;6.00;3.15;;;22.80;75.60;;;;;;5013451;28;20014;-75
2021/05/31 12:00:23;;;;;;;5.00;3.05;;;22.90;77.10;;;;;;4996363;28;20022;-75
2021/05/31 12:02:49;;;;;;;7.95;2.67;;;23.20;75.00;;;;;;5013764;28;20671;-75
2021/05/31 12:05:33;;;;;;;6.53;3.20;;;23.60;73.20;;;;;;5013918;28;20052;-76
2021/05/31 12:08:10;;;;;;;11.77;4.60;;;23.40;71.60;;;;;;5000042;28;20024;-73
2021/05/31 12:10:40;;;;;;;10.48;4.07;;;23.10;73.30;;;;;;5004914;28;20618;-74
2021/05/31 12:13:06;;;;;;;6.03;3.08;;;23.20;73.40;;;;;;5005276;28;20037;-73
2021/05/31 12:15:33;;;;;;;6.00;3.20;;;23.30;75.30;;;;;;5017810;28;20112;-74
2021/05/31 12:18:22;;;;;;;7.43;3.05;;;23.80;74.30;;;;;;5028816;28;20022;-77
2021/05/31 12:21:16;;;;;;;9.35;3.45;;;23.40;71.30;;;;;;5016602;28;20073;-77
2021/05/31 12:23:50;;;;;;;4.85;3.60;;;23.40;73.10;;;;;;5018675;28;20018;-73
2021/05/31 12:26:23;;;;;;;6.18;2.80;;;23.90;73.00;;;;;;5006300;28;20022;-74
2021/05/31 12:28:52;;;;;;;7.03;3.70;;;24.00;72.50;;;;;;5012241;28;20065;-74
2021/05/31 12:31:20;;;;;;;6.07;3.67;;;24.10;74.20;;;;;;5015548;28;20045;-75
2021/05/31 12:33:45;;;;;;;13.45;4.07;;;24.00;71.60;;;;;;5020943;28;20026;-75
2021/05/31 12:36:11;;;;;;;8.07;3.30;;;23.60;70.30;;;;;;5014789;28;20073;-75
2021/05/31 12:38:39;;;;;;;9.02;3.30;;;23.40;72.90;;;;;;5014154;28;20018;-75
2021/05/31 12:41:05;;;;;;;7.47;3.72;;;23.70;71.90;;;;;;5014833;28;20137;-76
2021/05/31 12:43:34;;;;;;;8.32;3.85;;;23.90;73.70;;;;;;4997230;28;20075;-74
2021/05/31 12:46:02;;;;;;;7.95;3.92;;;24.30;72.80;;;;;;5011679;28;20030;-74
2021/05/31 12:48:28;;;;;;;6.90;4.18;;;24.60;71.60;;;;;;5012161;28;20068;-73
2021/05/31 12:50:57;;;;;;;10.45;5.30;;;24.20;71.00;;;;;;5022808;28;20041;-74
2021/05/31 12:53:27;;;;;;;8.73;4.90;;;23.90;72.40;;;;;;5008916;28;20014;-76